createdAt,value
2019-02-11T00:00:13.992Z,86.13
2019-02-11T00:04:22.048Z,83.47
2019-02-11T00:08:31.893Z,82.40
2019-02-11T00:12:39.788Z,80.00
2019-02-11T00:16:46.528Z,79.10
2019-02-11T00:20:53.301Z,81.40
2019-02-11T00:24:59.779Z,75.63
2019-02-11T00:29:07.423Z,79.03
2019-02-11T00:33:16.133Z,79.67
2019-02-11T00:37:22.692Z,75.10
2019-02-11T00:41:28.978Z,77.13
2019-02-11T00:45:37.095Z,78.43
2019-02-11T00:49:43.824Z,77.73
2019-02-11T00:57:58.937Z,72.73
2019-02-11T01:02:08.360Z,81.47
2019-02-11T01:06:33.881Z,80.80
2019-02-11T01:10:40.582Z,77.93
2019-02-11T01:14:46.935Z,76.10
2019-02-11T01:18:54.283Z,78.50
2019-02-11T01:23:00.801Z,74.73
2019-02-11T01:27:08.820Z,73.07
2019-02-11T01:31:15.266Z,73.03
2019-02-11T01:35:22.173Z,81.13
2019-02-11T01:39:32.062Z,71.43
2019-02-11T01:43:37.849Z,71.30
2019-02-11T01:47:45.652Z,72.43
2019-02-11T01:51:55.115Z,76.97
2019-02-11T01:56:02.989Z,78.20
2019-02-11T02:00:14.311Z,81.77
2019-02-11T02:04:20.723Z,75.67
2019-02-11T02:08:28.571Z,69.37
2019-02-11T02:12:35.940Z,80.37
2019-02-11T02:16:43.890Z,80.50
2019-02-11T02:20:51.713Z,80.00
2019-02-11T02:25:05.056Z,77.00
2019-02-11T02:29:14.874Z,85.40
2019-02-11T02:33:21.545Z,76.20
2019-02-11T02:37:27.854Z,80.43
2019-02-11T02:41:42.281Z,73.93
2019-02-11T02:50:00.508Z,88.20
2019-02-11T02:54:06.898Z,74.83
2019-02-11T02:58:14.568Z,73.80
2019-02-11T03:02:21.152Z,75.73
2019-02-11T03:06:27.706Z,82.43
2019-02-11T03:10:35.165Z,74.23
2019-02-11T03:14:42.216Z,89.80
2019-02-11T03:18:48.504Z,83.50
2019-02-11T03:23:18.236Z,84.33
2019-02-11T03:27:24.577Z,79.00
2019-02-11T03:31:34.373Z,76.10
2019-02-11T03:35:40.776Z,79.23
2019-02-11T03:39:47.640Z,79.30
2019-02-11T03:43:57.555Z,79.73
2019-02-11T03:48:04.225Z,79.03
2019-02-11T03:52:16.777Z,79.17
2019-02-11T03:56:23.423Z,76.80
2019-02-11T04:00:35.110Z,75.20
2019-02-11T04:04:42.134Z,80.63
2019-02-11T04:08:48.708Z,81.23
2019-02-11T04:12:55.909Z,76.83
2019-02-11T04:17:02.725Z,82.93
2019-02-11T04:21:12.078Z,77.47
2019-02-11T04:25:20.389Z,85.57
2019-02-11T04:29:27.863Z,76.83
2019-02-11T04:33:33.555Z,79.87
2019-02-11T04:37:41.640Z,78.60
2019-02-11T04:41:48.001Z,82.13
2019-02-11T04:45:55.884Z,76.87
2019-02-11T04:50:02.208Z,74.20
2019-02-11T04:58:19.823Z,70.60
2019-02-11T05:02:26.360Z,77.43
2019-02-11T05:11:41.376Z,74.80
2019-02-11T05:15:47.783Z,77.70
2019-02-11T05:19:55.480Z,68.40
2019-02-11T05:24:05.717Z,62.67
2019-02-11T05:28:15.676Z,73.57
2019-02-11T05:32:22.125Z,72.93
2019-02-11T05:36:28.764Z,63.90
2019-02-11T05:40:35.194Z,67.40
2019-02-11T05:44:53.273Z,64.53
2019-02-11T05:48:53.837Z,65.10
2019-02-11T05:53:00.476Z,58.60
2019-02-11T05:57:07.413Z,60.53
2019-02-11T06:01:20.800Z,55.53
2019-02-11T06:05:27.403Z,56.90
2019-02-11T06:09:37.111Z,57.70
2019-02-11T06:13:44.162Z,56.87
2019-02-11T06:17:52.487Z,56.17
2019-02-11T06:21:58.921Z,60.30
2019-02-11T06:26:06.955Z,60.57
2019-02-11T06:30:13.773Z,59.80
2019-02-11T06:34:21.111Z,56.37
2019-02-11T06:38:27.729Z,53.20
2019-02-11T06:42:36.373Z,47.27
2019-02-11T06:46:42.680Z,62.20
2019-02-11T06:50:52.459Z,63.43
2019-02-11T06:54:57.895Z,64.40
2019-02-11T06:59:05.913Z,54.13
2019-02-11T07:03:13.653Z,59.73
2019-02-11T07:07:21.430Z,63.43
2019-02-11T07:11:27.794Z,42.87
2019-02-11T07:15:35.933Z,40.60
2019-02-11T07:19:42.277Z,37.57
2019-02-11T07:23:49.764Z,41.77
2019-02-11T07:27:57.803Z,43.63
2019-02-11T07:32:04.508Z,53.93
2019-02-11T07:36:12.179Z,42.77
2019-02-11T07:40:19.627Z,41.43
2019-02-11T07:44:32.385Z,45.87
2019-02-11T07:48:39.032Z,40.63
2019-02-11T07:52:45.331Z,48.67
2019-02-11T07:56:54.692Z,48.03
2019-02-11T08:01:01.666Z,38.53
2019-02-11T08:05:08.206Z,36.13
2019-02-11T08:09:15.421Z,34.10
2019-02-11T08:13:23.102Z,30.23
2019-02-11T08:21:39.719Z,26.83
2019-02-11T08:25:47.374Z,30.37
2019-02-11T08:30:34.095Z,29.27
2019-02-11T08:34:40.521Z,26.33
2019-02-11T08:38:47.001Z,26.33
2019-02-11T08:42:55.806Z,24.43
2019-02-11T08:47:02.533Z,28.23
2019-02-11T08:51:13.315Z,23.97
2019-02-11T08:55:22.469Z,26.20
2019-02-11T08:59:29.638Z,28.77
2019-02-11T09:03:47.153Z,23.57
2019-02-11T09:07:53.826Z,22.80
2019-02-11T09:12:01.822Z,22.63
2019-02-11T09:16:08.087Z,21.30
2019-02-11T09:20:17.145Z,22.20
2019-02-11T09:24:23.472Z,18.63
2019-02-11T09:28:29.940Z,23.47
2019-02-11T09:32:39.952Z,17.77
2019-02-11T09:36:47.129Z,19.37
2019-02-11T09:40:54.116Z,19.53
2019-02-11T09:45:02.866Z,17.80
2019-02-11T09:49:09.226Z,20.87
2019-02-11T09:53:16.547Z,19.13
2019-02-11T09:57:22.964Z,16.50
2019-02-11T10:01:29.477Z,20.67
2019-02-11T10:05:37.392Z,14.83
2019-02-11T10:09:44.182Z,13.03
2019-02-11T10:13:55.306Z,13.97
2019-02-11T10:18:03.270Z,11.03
2019-02-11T10:22:09.698Z,13.17
2019-02-11T10:26:40.275Z,15.80
2019-02-11T10:30:46.646Z,21.43
2019-02-11T10:35:14.974Z,16.50
2019-02-11T10:39:21.404Z,11.20
2019-02-11T10:43:28.084Z,15.20
2019-02-11T10:47:35.981Z,16.93
2019-02-11T10:51:42.633Z,11.60
2019-02-11T10:55:48.924Z,12.93
2019-02-11T10:59:57.346Z,6.37
2019-02-11T11:04:03.710Z,19.70
2019-02-11T11:08:12.623Z,12.07
2019-02-11T11:12:19.945Z,13.10
2019-02-11T11:16:29.843Z,8.87
2019-02-11T11:20:37.708Z,7.73
2019-02-11T11:24:46.356Z,8.40
2019-02-11T11:28:55.049Z,10.23
2019-02-11T11:33:02.911Z,11.37
2019-02-11T11:37:09.565Z,11.87
2019-02-11T11:41:15.772Z,13.73
2019-02-11T11:45:23.109Z,16.77
2019-02-11T11:49:32.163Z,13.97
2019-02-11T11:53:40.078Z,13.57
2019-02-11T11:57:46.660Z,12.57
2019-02-11T12:01:57.373Z,9.60
2019-02-11T12:06:05.116Z,13.37
2019-02-11T12:10:13.837Z,13.03
2019-02-11T12:14:20.782Z,12.93
2019-02-11T12:18:28.676Z,16.73
2019-02-11T12:22:57.076Z,11.97
2019-02-11T12:27:03.452Z,10.70
2019-02-11T12:31:11.768Z,16.10
2019-02-11T12:35:13.645Z,13.53
2019-02-11T12:39:20.831Z,17.07
2019-02-11T12:43:29.522Z,18.50
2019-02-11T12:47:36.764Z,21.33
2019-02-11T12:51:43.049Z,24.77
2019-02-11T12:55:51.936Z,22.03
2019-02-11T12:59:58.517Z,23.00
2019-02-11T13:04:06.215Z,24.73
2019-02-11T13:08:14.201Z,24.00
2019-02-11T13:12:21.068Z,14.30
2019-02-11T13:16:28.539Z,12.87
2019-02-11T13:20:55.499Z,15.97
2019-02-11T13:25:07.688Z,15.53
2019-02-11T13:29:16.001Z,18.87
2019-02-11T13:33:22.933Z,12.07
2019-02-11T13:37:31.824Z,16.53
2019-02-11T13:41:39.672Z,18.30
2019-02-11T13:45:49.106Z,17.90
2019-02-11T13:49:55.601Z,20.77
2019-02-11T13:54:01.943Z,27.10
2019-02-11T13:58:08.657Z,30.10
2019-02-11T14:02:41.693Z,34.17
2019-02-11T14:06:48.342Z,32.00
2019-02-11T14:10:55.980Z,34.50
2019-02-11T14:15:04.867Z,29.17
2019-02-11T14:19:13.527Z,24.37
2019-02-11T14:23:20.167Z,22.17
2019-02-11T14:27:26.697Z,22.37
2019-02-11T14:31:36.424Z,20.77
2019-02-11T14:35:43.985Z,15.47
2019-02-11T14:43:56.315Z,17.50
2019-02-11T14:48:03.154Z,15.87
2019-02-11T14:52:13.000Z,13.93
2019-02-11T14:56:15.777Z,16.60
2019-02-11T15:00:25.237Z,19.03
2019-02-11T15:08:39.700Z,18.27
2019-02-11T15:12:46.110Z,18.13
2019-02-11T15:16:53.807Z,18.93
2019-02-11T15:21:00.103Z,19.27
2019-02-11T15:25:10.052Z,24.73
2019-02-11T15:29:18.741Z,30.77
2019-02-11T15:33:25.294Z,32.40
2019-02-11T15:37:33.820Z,25.50
2019-02-11T15:41:41.417Z,27.90
2019-02-11T15:45:47.829Z,28.80
2019-02-11T15:49:56.273Z,26.33
2019-02-11T15:54:02.755Z,29.90
2019-02-11T15:58:09.744Z,30.20
2019-02-11T16:02:14.654Z,29.03
2019-02-11T16:06:21.179Z,28.23
2019-02-11T16:10:28.192Z,30.23
2019-02-11T16:14:38.864Z,22.53
2019-02-11T16:18:51.839Z,28.30
2019-02-11T16:22:56.411Z,27.00
2019-02-11T16:27:02.825Z,31.03
2019-02-11T16:31:13.322Z,26.40
2019-02-11T16:35:19.662Z,29.67
2019-02-11T16:39:26.586Z,19.43
2019-02-11T16:43:35.603Z,24.27
2019-02-11T16:47:45.025Z,30.47
2019-02-11T16:51:52.606Z,26.30
2019-02-11T16:56:00.044Z,34.97
2019-02-11T17:00:07.784Z,35.77
2019-02-11T17:04:15.065Z,33.90
2019-02-11T17:08:18.911Z,28.03
2019-02-11T17:12:25.524Z,35.40
2019-02-11T17:16:31.924Z,38.77
2019-02-11T17:20:45.978Z,36.67
2019-02-11T17:24:52.661Z,45.13
2019-02-11T17:29:00.184Z,36.37
2019-02-11T17:33:06.563Z,31.03
2019-02-11T17:41:22.707Z,32.07
2019-02-11T17:45:31.524Z,30.20
2019-02-11T17:49:38.652Z,23.77
2019-02-11T17:53:45.767Z,27.63
2019-02-11T17:57:52.295Z,26.03
2019-02-11T18:02:00.753Z,29.57
2019-02-11T18:06:07.130Z,29.83
2019-02-11T18:10:16.735Z,23.83
2019-02-11T18:14:27.134Z,27.57
2019-02-11T18:18:33.971Z,27.27
2019-02-11T18:23:01.516Z,28.27
2019-02-11T18:27:10.661Z,26.37
2019-02-11T18:31:19.131Z,27.00
2019-02-11T18:35:26.031Z,21.27
2019-02-11T18:39:32.535Z,27.80
2019-02-11T18:43:41.677Z,28.40
2019-02-11T18:47:48.069Z,27.50
2019-02-11T18:51:54.844Z,27.27
2019-02-11T18:56:01.598Z,27.00
2019-02-11T19:00:09.315Z,19.70
2019-02-11T19:04:39.877Z,30.10
2019-02-11T19:08:46.920Z,22.63
2019-02-11T19:12:53.298Z,20.27
2019-02-11T19:17:02.208Z,14.83
2019-02-11T19:21:08.575Z,13.33
2019-02-11T19:29:23.691Z,15.47
2019-02-11T19:33:30.790Z,16.17
2019-02-11T19:37:59.407Z,11.90
2019-02-11T19:42:07.321Z,16.87
2019-02-11T19:46:13.677Z,19.43
2019-02-11T19:50:42.087Z,15.33
2019-02-11T19:54:50.192Z,11.60
2019-02-11T19:58:58.192Z,17.43
2019-02-11T20:03:05.044Z,18.53
2019-02-11T20:07:13.904Z,16.47
2019-02-11T20:11:41.587Z,17.87
2019-02-11T20:15:48.498Z,22.10
2019-02-11T20:20:00.140Z,16.43
2019-02-11T20:24:04.322Z,22.30
2019-02-11T20:28:10.808Z,14.60
2019-02-11T20:32:18.097Z,11.37
2019-02-11T20:36:24.871Z,21.13
2019-02-11T20:40:33.008Z,20.67
2019-02-11T20:44:40.896Z,19.33
2019-02-11T20:48:48.280Z,22.13
2019-02-11T20:57:45.240Z,17.73
2019-02-11T21:01:51.551Z,21.27
2019-02-11T21:06:01.209Z,15.17
2019-02-11T21:10:08.556Z,22.00
2019-02-11T21:14:16.790Z,21.23
2019-02-11T21:18:23.234Z,25.73
2019-02-11T21:22:33.692Z,25.33
2019-02-11T21:27:01.161Z,27.67
2019-02-11T21:31:07.722Z,27.37
2019-02-11T21:35:14.155Z,25.47
2019-02-11T21:39:43.046Z,23.83
2019-02-11T21:43:51.422Z,27.43
2019-02-11T21:47:59.096Z,21.70
2019-02-11T21:52:05.478Z,30.90
2019-02-11T21:56:13.028Z,37.63
2019-02-11T22:00:19.919Z,34.40
2019-02-11T22:04:26.258Z,30.07
2019-02-11T22:08:32.657Z,32.93
2019-02-11T22:12:40.136Z,40.93
2019-02-11T22:16:48.006Z,32.07
2019-02-11T22:20:55.429Z,35.73
2019-02-11T22:25:26.304Z,25.73
2019-02-11T22:29:33.899Z,33.40
2019-02-11T22:33:40.315Z,33.80
2019-02-11T22:37:50.270Z,25.40
2019-02-11T22:41:56.560Z,30.07
2019-02-11T22:46:05.392Z,29.57
2019-02-11T22:50:12.243Z,31.77
2019-02-11T22:54:18.847Z,29.40
2019-02-11T22:58:46.423Z,29.83
2019-02-11T23:02:53.471Z,30.83
2019-02-11T23:07:00.147Z,23.83
2019-02-11T23:11:10.179Z,17.13
2019-02-11T23:15:19.599Z,25.30
2019-02-11T23:19:26.549Z,27.97
2019-02-11T23:23:33.203Z,23.93
2019-02-11T23:27:43.406Z,37.50
2019-02-11T23:31:50.011Z,26.87
2019-02-11T23:35:58.445Z,30.07
2019-02-11T23:40:07.289Z,37.23
2019-02-11T23:44:13.732Z,21.57
2019-02-11T23:48:20.410Z,30.13
2019-02-11T23:52:29.446Z,40.23
2019-02-11T23:56:35.852Z,30.10
